createdAt,value
2023-05-09T00:00:32.943Z,32.09
2023-05-09T00:03:00.826Z,32.32
2023-05-09T00:05:28.215Z,32.40
2023-05-09T00:07:55.701Z,32.40
2023-05-09T00:10:23.431Z,32.40
2023-05-09T00:12:51.405Z,32.44
2023-05-09T00:15:19.165Z,32.48
2023-05-09T00:17:47.160Z,32.48
2023-05-09T00:20:14.783Z,32.51
2023-05-09T00:22:42.173Z,32.45
2023-05-09T00:25:10.268Z,32.37
2023-05-09T00:27:37.700Z,32.21
2023-05-09T00:30:05.909Z,32.21
2023-05-09T00:32:33.963Z,32.00
2023-05-09T00:35:01.360Z,31.96
2023-05-09T00:37:30.627Z,31.77
2023-05-09T00:39:58.355Z,31.79
2023-05-09T00:42:25.862Z,31.72
2023-05-09T00:44:53.262Z,31.64
2023-05-09T00:47:24.050Z,31.62
2023-05-09T00:49:51.572Z,31.61
2023-05-09T00:52:23.306Z,31.54
2023-05-09T00:54:51.842Z,31.46
2023-05-09T00:57:19.211Z,31.46
2023-05-09T00:59:46.677Z,31.66
2023-05-09T01:02:15.662Z,31.83
2023-05-09T01:04:43.145Z,31.72
2023-05-09T01:07:11.999Z,31.87
2023-05-09T01:09:51.683Z,31.89
2023-05-09T01:12:24.833Z,31.68
2023-05-09T01:15:08.440Z,31.66
2023-05-09T01:17:59.503Z,31.58
2023-05-09T01:20:38.726Z,31.71
2023-05-09T01:23:41.446Z,31.69
2023-05-09T01:26:36.760Z,31.73
2023-05-09T01:29:34.680Z,31.80
2023-05-09T01:32:08.721Z,31.64
2023-05-09T01:34:36.267Z,31.70
2023-05-09T01:37:04.902Z,31.55
2023-05-09T01:39:33.510Z,31.58
2023-05-09T01:42:02.488Z,31.63
2023-05-09T01:44:37.058Z,31.54
2023-05-09T01:47:04.952Z,31.46
2023-05-09T01:49:32.927Z,31.69
2023-05-09T01:52:06.098Z,31.71
2023-05-09T01:54:33.885Z,31.71
2023-05-09T01:57:01.296Z,31.61
2023-05-09T01:59:28.825Z,31.63
2023-05-09T02:01:57.318Z,31.67
2023-05-09T02:04:25.050Z,31.67
2023-05-09T02:06:52.601Z,31.63
2023-05-09T02:09:20.040Z,31.62
2023-05-09T02:11:47.717Z,31.58
2023-05-09T02:14:15.132Z,31.62
2023-05-09T02:16:42.600Z,31.59
2023-05-09T02:19:10.520Z,31.61
2023-05-09T02:21:38.042Z,31.61
2023-05-09T02:24:05.891Z,31.51
2023-05-09T02:26:35.520Z,31.46
2023-05-09T02:29:03.629Z,31.49
2023-05-09T02:31:31.271Z,31.51
2023-05-09T02:33:59.618Z,31.41
2023-05-09T02:36:27.876Z,31.28
2023-05-09T02:38:55.526Z,31.14
2023-05-09T02:41:23.445Z,31.14
2023-05-09T02:43:50.969Z,31.16
2023-05-09T02:46:18.445Z,30.95
2023-05-09T02:48:46.253Z,31.09
2023-05-09T02:51:13.721Z,31.09
2023-05-09T02:53:41.123Z,31.15
2023-05-09T02:56:09.755Z,31.06
2023-05-09T02:58:37.391Z,30.98
2023-05-09T03:01:04.960Z,31.08
2023-05-09T03:03:34.776Z,30.89
2023-05-09T03:06:03.000Z,30.88
2023-05-09T03:08:30.933Z,30.95
2023-05-09T03:10:58.904Z,30.90
2023-05-09T03:13:26.773Z,30.78
2023-05-09T03:15:54.344Z,31.02
2023-05-09T03:18:22.054Z,30.93
2023-05-09T03:20:49.681Z,31.07
2023-05-09T03:23:17.101Z,31.01
2023-05-09T03:25:44.854Z,30.92
2023-05-09T03:28:12.287Z,30.91
2023-05-09T03:30:39.871Z,30.93
2023-05-09T03:33:08.660Z,30.91
2023-05-09T03:35:36.111Z,31.00
2023-05-09T03:38:03.545Z,30.90
2023-05-09T03:40:31.276Z,30.91
2023-05-09T03:43:01.133Z,30.83
2023-05-09T03:45:28.569Z,30.97
2023-05-09T03:47:56.986Z,30.98
2023-05-09T03:50:24.625Z,31.05
2023-05-09T03:52:52.740Z,31.24
2023-05-09T03:55:21.166Z,31.47
2023-05-09T03:57:48.622Z,31.89
2023-05-09T04:00:17.408Z,32.15
2023-05-09T04:02:46.682Z,32.32
2023-05-09T04:05:16.101Z,32.37
2023-05-09T04:07:43.854Z,32.26
2023-05-09T04:10:11.747Z,32.39
2023-05-09T04:12:39.502Z,32.50
2023-05-09T04:15:07.792Z,32.20
2023-05-09T04:17:35.687Z,32.26
2023-05-09T04:20:03.618Z,32.40
2023-05-09T04:22:31.833Z,32.26
2023-05-09T04:24:59.652Z,32.14
2023-05-09T04:27:28.158Z,32.38
2023-05-09T04:29:56.127Z,32.35
2023-05-09T04:32:24.032Z,32.47
2023-05-09T04:34:51.605Z,32.51
2023-05-09T04:37:20.250Z,32.49
2023-05-09T04:39:48.090Z,32.63
2023-05-09T04:42:15.745Z,32.81
2023-05-09T04:44:43.209Z,33.03
2023-05-09T04:47:11.036Z,33.39
2023-05-09T04:49:38.448Z,33.24
2023-05-09T04:52:06.979Z,33.50
2023-05-09T04:54:34.795Z,33.59
2023-05-09T04:57:16.526Z,33.90
2023-05-09T04:59:45.898Z,34.02
2023-05-09T05:02:13.493Z,33.91
2023-05-09T05:04:41.887Z,34.37
2023-05-09T05:07:09.722Z,34.39
2023-05-09T05:09:37.233Z,34.46
2023-05-09T05:14:35.245Z,34.52
2023-05-09T05:17:02.881Z,34.52
2023-05-09T05:19:30.313Z,34.66
2023-05-09T05:21:58.373Z,34.64
2023-05-09T05:24:26.267Z,34.58
2023-05-09T05:26:54.232Z,34.64
2023-05-09T05:29:22.321Z,34.64
2023-05-09T05:31:49.761Z,34.65
2023-05-09T05:34:17.277Z,34.90
2023-05-09T05:36:45.820Z,34.95
2023-05-09T05:39:13.314Z,34.75
2023-05-09T05:41:41.337Z,35.00
2023-05-09T05:44:09.142Z,34.97
2023-05-09T05:46:36.697Z,35.04
2023-05-09T05:49:04.292Z,35.07
2023-05-09T05:51:33.765Z,35.03
2023-05-09T05:54:01.530Z,35.01
2023-05-09T05:56:29.092Z,34.86
2023-05-09T05:58:57.281Z,34.88
2023-05-09T06:01:24.782Z,34.92
2023-05-09T06:03:56.031Z,35.12
2023-05-09T06:06:24.394Z,35.02
2023-05-09T06:08:52.080Z,35.08
2023-05-09T06:11:21.246Z,35.10
2023-05-09T06:13:48.757Z,35.10
2023-05-09T06:16:19.927Z,35.13
2023-05-09T06:18:48.588Z,35.22
2023-05-09T06:21:16.303Z,35.13
2023-05-09T06:24:01.405Z,35.34
2023-05-09T06:26:31.430Z,35.46
2023-05-09T06:28:58.888Z,35.30
2023-05-09T06:31:26.402Z,35.27
2023-05-09T06:33:54.138Z,35.23
2023-05-09T06:36:21.622Z,35.35
2023-05-09T06:38:49.038Z,35.38
2023-05-09T06:41:16.722Z,35.47
2023-05-09T06:43:44.169Z,35.54
2023-05-09T06:46:11.707Z,35.59
2023-05-09T06:48:39.558Z,35.65
2023-05-09T06:51:06.961Z,35.70
2023-05-09T06:53:34.441Z,35.76
2023-05-09T06:56:02.126Z,35.90
2023-05-09T06:58:29.562Z,36.13
2023-05-09T07:00:56.954Z,36.00
2023-05-09T07:03:24.638Z,35.91
2023-05-09T07:05:52.494Z,35.89
2023-05-09T07:08:19.896Z,36.06
2023-05-09T07:10:47.521Z,36.12
2023-05-09T07:13:14.957Z,36.07
2023-05-09T07:15:43.142Z,36.08
2023-05-09T07:18:11.140Z,36.12
2023-05-09T07:20:38.587Z,36.23
2023-05-09T07:23:06.226Z,36.33
2023-05-09T07:25:33.952Z,36.33
2023-05-09T07:28:01.381Z,36.36
2023-05-09T07:30:28.853Z,36.37
2023-05-09T07:32:56.650Z,36.42
2023-05-09T07:35:24.148Z,36.40
2023-05-09T07:37:51.593Z,36.46
2023-05-09T07:40:19.430Z,36.41
2023-05-09T07:42:49.945Z,36.40
2023-05-09T07:45:19.367Z,36.48
2023-05-09T07:47:48.323Z,36.31
2023-05-09T07:50:17.029Z,36.28
2023-05-09T07:52:44.715Z,36.18
2023-05-09T07:55:12.606Z,36.24
2023-05-09T07:57:40.183Z,36.19
2023-05-09T08:00:08.902Z,36.19
2023-05-09T08:02:41.081Z,36.20
2023-05-09T08:05:11.487Z,36.17
2023-05-09T08:07:39.332Z,36.17
2023-05-09T08:10:07.444Z,35.63
2023-05-09T08:12:35.090Z,35.04
2023-05-09T08:15:02.603Z,34.65
2023-05-09T08:17:32.169Z,34.66
2023-05-09T08:19:59.847Z,35.11
2023-05-09T08:22:27.370Z,35.24
2023-05-09T08:24:54.854Z,35.18
2023-05-09T08:27:22.585Z,35.14
2023-05-09T08:29:50.009Z,35.08
2023-05-09T08:32:19.874Z,35.02
2023-05-09T08:34:47.398Z,34.96
2023-05-09T08:37:15.404Z,34.82
2023-05-09T08:39:43.146Z,34.79
2023-05-09T08:42:11.179Z,34.82
2023-05-09T08:44:38.617Z,34.81
2023-05-09T08:47:06.043Z,34.67
2023-05-09T08:49:33.666Z,34.74
2023-05-09T08:52:01.118Z,34.64
2023-05-09T08:54:28.536Z,34.66
2023-05-09T08:56:56.245Z,34.67
2023-05-09T08:59:23.696Z,34.60
2023-05-09T09:01:52.317Z,34.61
2023-05-09T09:04:20.054Z,34.40
2023-05-09T09:06:47.511Z,34.44
2023-05-09T09:09:14.986Z,34.45
2023-05-09T09:11:42.647Z,34.61
2023-05-09T09:14:16.186Z,34.66
2023-05-09T09:16:44.960Z,34.67
2023-05-09T09:19:13.437Z,34.43
2023-05-09T09:21:42.645Z,33.87
2023-05-09T09:24:12.778Z,33.71
2023-05-09T09:26:46.233Z,33.86
2023-05-09T09:29:14.267Z,33.86
2023-05-09T09:31:47.106Z,33.60
2023-05-09T09:34:21.303Z,33.49
2023-05-09T09:36:48.962Z,33.60
2023-05-09T09:39:16.752Z,33.72
2023-05-09T09:41:46.915Z,33.60
2023-05-09T09:44:18.593Z,33.19
2023-05-09T09:46:51.096Z,33.16
2023-05-09T09:49:23.431Z,33.22
2023-05-09T09:51:52.296Z,32.89
2023-05-09T09:54:19.797Z,32.96
2023-05-09T09:56:48.504Z,32.77
2023-05-09T09:59:17.767Z,33.00
2023-05-09T10:01:59.091Z,32.82
2023-05-09T10:04:31.578Z,32.68
2023-05-09T10:07:03.758Z,32.47
2023-05-09T10:09:31.837Z,32.33
2023-05-09T10:12:02.527Z,32.01
2023-05-09T10:14:32.044Z,32.13
2023-05-09T10:17:02.058Z,32.23
2023-05-09T10:19:29.895Z,32.19
2023-05-09T10:21:59.117Z,32.01
2023-05-09T10:24:38.936Z,31.63
2023-05-09T10:27:09.614Z,31.75
2023-05-09T10:30:02.037Z,31.64
2023-05-09T10:32:32.571Z,31.86
2023-05-09T10:35:05.967Z,31.93
2023-05-09T10:37:33.742Z,31.59
2023-05-09T10:40:01.674Z,31.26
2023-05-09T10:42:29.578Z,31.37
2023-05-09T10:44:57.828Z,31.21
2023-05-09T10:47:28.765Z,31.59
2023-05-09T10:49:56.241Z,31.65
2023-05-09T10:52:23.663Z,31.38
2023-05-09T10:55:04.448Z,31.65
2023-05-09T10:57:32.736Z,31.60
2023-05-09T11:00:00.590Z,31.73
2023-05-09T11:02:32.762Z,31.91
2023-05-09T11:05:19.363Z,32.02
2023-05-09T11:07:46.789Z,32.14
2023-05-09T11:10:18.014Z,32.14
2023-05-09T11:12:57.783Z,32.15
2023-05-09T11:15:27.607Z,32.33
2023-05-09T11:18:08.295Z,32.38
2023-05-09T11:20:36.663Z,32.30
2023-05-09T11:23:04.723Z,32.47
2023-05-09T11:25:32.366Z,32.05
2023-05-09T11:28:06.422Z,31.69
2023-05-09T11:30:39.753Z,31.50
2023-05-09T11:33:07.933Z,31.51
2023-05-09T11:35:38.092Z,31.84
2023-05-09T11:38:05.741Z,31.82
2023-05-09T11:40:34.360Z,31.48
2023-05-09T11:43:01.855Z,31.07
2023-05-09T11:45:30.721Z,30.91
2023-05-09T11:48:01.316Z,31.10
2023-05-09T11:50:36.349Z,30.99
2023-05-09T11:53:04.045Z,30.91
2023-05-09T11:55:32.714Z,30.95
2023-05-09T11:58:00.190Z,30.66
2023-05-09T12:00:27.950Z,31.05
2023-05-09T12:02:55.869Z,31.27
2023-05-09T12:05:23.417Z,31.41
2023-05-09T12:07:50.977Z,31.51
2023-05-09T12:10:22.963Z,31.59
2023-05-09T12:12:51.729Z,31.55
2023-05-09T12:15:21.536Z,31.58
2023-05-09T12:18:04.773Z,31.60
2023-05-09T12:20:42.344Z,31.62
2023-05-09T12:23:11.639Z,31.63
2023-05-09T12:25:39.330Z,31.65
2023-05-09T12:28:06.873Z,31.67
2023-05-09T12:30:34.313Z,31.72
2023-05-09T12:33:01.985Z,31.79
2023-05-09T12:35:29.562Z,31.84
2023-05-09T12:37:58.388Z,31.82
2023-05-09T12:40:26.922Z,31.86
2023-05-09T12:42:57.277Z,31.88
2023-05-09T12:45:24.735Z,31.87
2023-05-09T12:47:52.465Z,31.87
2023-05-09T12:50:20.048Z,31.89
2023-05-09T12:53:02.017Z,31.93
2023-05-09T12:55:30.372Z,31.94
2023-05-09T12:58:02.268Z,31.93
2023-05-09T13:00:45.925Z,31.99
2023-05-09T13:03:37.816Z,31.98
2023-05-09T13:06:06.620Z,31.97
2023-05-09T13:08:34.256Z,31.99
2023-05-09T13:11:14.960Z,32.05
2023-05-09T13:13:44.964Z,32.05
2023-05-09T13:16:14.873Z,32.02
2023-05-09T13:18:43.319Z,31.99
2023-05-09T13:21:10.981Z,32.04
2023-05-09T13:23:38.352Z,32.11
2023-05-09T13:26:05.816Z,32.13
2023-05-09T13:28:33.448Z,32.16
2023-05-09T13:31:01.401Z,32.17
2023-05-09T13:33:28.923Z,32.16
2023-05-09T13:35:56.702Z,32.19
2023-05-09T13:38:24.190Z,32.22
2023-05-09T13:40:51.644Z,32.21
2023-05-09T13:43:19.313Z,32.19
2023-05-09T13:45:46.844Z,32.28
2023-05-09T13:48:14.387Z,32.28
2023-05-09T13:50:42.085Z,32.31
2023-05-09T13:53:09.470Z,32.30
2023-05-09T13:55:36.917Z,32.30
2023-05-09T13:58:05.124Z,32.29
2023-05-09T14:00:33.253Z,32.29
2023-05-09T14:03:02.048Z,32.33
2023-05-09T14:05:31.481Z,32.38
2023-05-09T14:07:58.864Z,32.41
2023-05-09T14:10:27.201Z,32.41
2023-05-09T14:12:54.711Z,32.44
2023-05-09T14:15:22.136Z,32.42
2023-05-09T14:17:49.855Z,32.46
2023-05-09T14:20:17.501Z,32.43
2023-05-09T14:22:45.083Z,32.41
2023-05-09T14:25:12.821Z,32.40
2023-05-09T14:27:40.275Z,32.41
2023-05-09T14:30:08.666Z,32.44
2023-05-09T14:32:36.373Z,32.49
2023-05-09T14:35:04.131Z,32.54
2023-05-09T14:37:32.085Z,32.57
2023-05-09T14:40:05.740Z,32.60
2023-05-09T14:42:33.581Z,32.58
2023-05-09T14:45:01.329Z,32.39
2023-05-09T14:47:29.228Z,32.27
2023-05-09T14:49:57.486Z,32.29
2023-05-09T14:52:25.462Z,32.20
2023-05-09T14:54:52.942Z,32.38
2023-05-09T14:57:20.433Z,32.22
2023-05-09T14:59:48.095Z,31.86
2023-05-09T15:02:15.622Z,32.01
2023-05-09T15:04:43.921Z,32.23
2023-05-09T15:07:11.993Z,32.30
2023-05-09T15:09:39.445Z,32.24
2023-05-09T15:12:06.914Z,32.17
2023-05-09T15:14:34.570Z,32.22
2023-05-09T15:17:04.316Z,32.08
2023-05-09T15:19:32.506Z,31.91
2023-05-09T15:22:00.351Z,31.94
2023-05-09T15:24:27.737Z,31.57
2023-05-09T15:26:55.226Z,31.56
2023-05-09T15:29:22.942Z,31.44
2023-05-09T15:31:50.368Z,31.27
2023-05-09T15:34:17.842Z,31.08
2023-05-09T15:36:45.595Z,31.47
2023-05-09T15:39:12.989Z,31.69
2023-05-09T15:41:40.428Z,31.83
2023-05-09T15:44:08.290Z,31.87
2023-05-09T15:46:35.862Z,31.94
2023-05-09T15:49:03.476Z,32.04
2023-05-09T15:51:31.773Z,32.04
2023-05-09T15:53:59.219Z,32.03
2023-05-09T15:56:26.644Z,32.06
2023-05-09T15:58:54.329Z,32.13
2023-05-09T16:01:21.867Z,32.13
2023-05-09T16:03:49.706Z,32.10
2023-05-09T16:06:17.351Z,32.08
2023-05-09T16:08:46.306Z,32.08
2023-05-09T16:11:14.056Z,32.10
2023-05-09T16:13:41.760Z,32.06
2023-05-09T16:16:09.300Z,32.08
2023-05-09T16:18:37.037Z,32.11
2023-05-09T16:21:05.364Z,32.09
2023-05-09T16:23:32.981Z,32.09
2023-05-09T16:26:00.960Z,32.08
2023-05-09T16:28:29.514Z,32.07
2023-05-09T16:30:56.960Z,32.11
2023-05-09T16:33:24.665Z,32.09
2023-05-09T16:35:52.114Z,32.05
2023-05-09T16:38:19.497Z,32.03
2023-05-09T16:40:47.202Z,32.07
2023-05-09T16:43:16.395Z,32.07
2023-05-09T16:45:43.862Z,32.08
2023-05-09T16:48:11.671Z,32.25
2023-05-09T16:50:43.110Z,32.37
2023-05-09T16:53:14.607Z,32.69
2023-05-09T16:55:42.014Z,33.03
2023-05-09T16:58:09.449Z,33.24
2023-05-09T17:00:37.709Z,33.36
2023-05-09T17:03:05.431Z,33.52
2023-05-09T17:05:33.251Z,33.66
2023-05-09T17:08:00.971Z,33.83
2023-05-09T17:10:28.434Z,33.89
2023-05-09T17:12:56.055Z,33.89
2023-05-09T17:15:24.321Z,33.90
2023-05-09T17:17:51.818Z,33.92
2023-05-09T17:20:19.278Z,33.90
2023-05-09T17:22:47.448Z,33.91
2023-05-09T17:25:14.936Z,33.91
2023-05-09T17:27:42.904Z,33.94
2023-05-09T17:30:11.300Z,33.96
2023-05-09T17:32:42.784Z,33.96
2023-05-09T17:35:10.634Z,33.87
2023-05-09T17:37:38.315Z,33.81
2023-05-09T17:40:07.940Z,33.74
2023-05-09T17:42:35.338Z,33.74
2023-05-09T17:45:03.018Z,33.77
2023-05-09T17:47:30.466Z,33.74
2023-05-09T17:49:57.929Z,33.73
2023-05-09T17:52:26.060Z,33.75
2023-05-09T17:54:53.484Z,33.80
2023-05-09T17:57:20.962Z,33.92
2023-05-09T17:59:48.621Z,33.92
2023-05-09T18:02:16.745Z,33.91
2023-05-09T18:04:45.259Z,33.97
2023-05-09T18:07:12.777Z,33.98
2023-05-09T18:09:40.613Z,33.95
2023-05-09T18:12:09.844Z,34.02
2023-05-09T18:14:38.791Z,34.06
2023-05-09T18:17:06.155Z,34.15
2023-05-09T18:19:34.001Z,34.18
2023-05-09T18:22:01.831Z,34.21
2023-05-09T18:24:29.266Z,34.21
2023-05-09T18:26:57.252Z,34.23
2023-05-09T18:29:24.808Z,34.24
2023-05-09T18:31:52.317Z,34.23
2023-05-09T18:34:20.119Z,34.26
2023-05-09T18:36:48.813Z,34.27
2023-05-09T18:39:16.372Z,34.32
2023-05-09T18:41:44.129Z,34.34
2023-05-09T18:44:11.943Z,34.34
2023-05-09T18:46:39.583Z,34.36
2023-05-09T18:49:08.003Z,34.34
2023-05-09T18:51:36.531Z,34.38
2023-05-09T18:54:04.799Z,34.47
2023-05-09T18:56:39.042Z,34.46
2023-05-09T18:59:09.380Z,34.47
2023-05-09T19:01:39.231Z,34.46
2023-05-09T19:04:07.229Z,34.52
2023-05-09T19:06:34.717Z,34.52
2023-05-09T19:09:03.989Z,34.51
2023-05-09T19:11:31.651Z,34.53
2023-05-09T19:14:00.362Z,34.55
2023-05-09T19:16:29.007Z,34.56
2023-05-09T19:18:58.814Z,34.56
2023-05-09T19:24:15.631Z,34.57
2023-05-09T19:26:43.100Z,34.58
2023-05-09T19:29:11.357Z,34.59
2023-05-09T19:31:41.894Z,34.62
2023-05-09T19:34:10.768Z,34.59
2023-05-09T19:36:40.130Z,34.52
2023-05-09T19:39:10.110Z,34.53
2023-05-09T19:41:37.869Z,34.54
2023-05-09T19:44:08.123Z,34.53
2023-05-09T19:46:42.856Z,34.53
2023-05-09T19:49:17.151Z,34.52
2023-05-09T19:51:51.583Z,34.54
2023-05-09T19:54:19.704Z,34.60
2023-05-09T19:56:48.408Z,34.62
2023-05-09T19:59:16.465Z,34.65
2023-05-09T20:01:44.378Z,34.64
2023-05-09T20:04:12.703Z,34.66
2023-05-09T20:06:50.930Z,34.66
2023-05-09T20:09:21.614Z,34.64
2023-05-09T20:11:49.866Z,34.59
2023-05-09T20:14:22.926Z,34.59
2023-05-09T20:16:51.901Z,34.65
2023-05-09T20:19:21.373Z,34.62
2023-05-09T20:21:50.603Z,34.66
2023-05-09T20:24:21.552Z,34.62
2023-05-09T20:26:49.936Z,34.62
2023-05-09T20:29:18.811Z,34.66
2023-05-09T20:31:47.891Z,34.70
2023-05-09T20:34:18.400Z,34.74
2023-05-09T20:36:53.897Z,34.75
2023-05-09T20:39:22.332Z,34.76
2023-05-09T20:41:51.332Z,34.76
2023-05-09T20:44:19.895Z,34.85
2023-05-09T20:46:48.224Z,34.86
2023-05-09T20:49:16.941Z,34.86
2023-05-09T20:51:44.749Z,34.88
2023-05-09T20:54:12.338Z,34.94
2023-05-09T20:56:40.072Z,34.99
2023-05-09T20:59:07.461Z,34.99
2023-05-09T21:01:40.157Z,35.02
2023-05-09T21:04:08.520Z,35.07
2023-05-09T21:06:36.319Z,35.08
2023-05-09T21:09:05.308Z,35.07
2023-05-09T21:11:33.168Z,35.14
2023-05-09T21:14:00.640Z,35.16
2023-05-09T21:16:28.440Z,35.22
2023-05-09T21:18:57.305Z,35.22
2023-05-09T21:21:24.657Z,35.23
2023-05-09T21:23:52.387Z,35.26
2023-05-09T21:26:20.066Z,35.29
2023-05-09T21:28:47.428Z,35.34
2023-05-09T21:31:14.853Z,35.40
2023-05-09T21:33:42.547Z,35.37
2023-05-09T21:36:09.938Z,35.33
2023-05-09T21:38:37.721Z,35.36
2023-05-09T21:41:05.335Z,35.40
2023-05-09T21:43:32.706Z,35.47
2023-05-09T21:46:00.151Z,35.40
2023-05-09T21:48:27.868Z,35.34
2023-05-09T21:50:55.260Z,35.31
2023-05-09T21:53:23.392Z,35.32
2023-05-09T21:55:51.071Z,35.32
2023-05-09T21:58:18.444Z,35.29
2023-05-09T22:00:45.937Z,35.28
2023-05-09T22:03:13.934Z,35.27
2023-05-09T22:05:41.356Z,35.33
2023-05-09T22:08:08.706Z,35.51
2023-05-09T22:10:37.742Z,35.53
2023-05-09T22:13:05.251Z,35.59
2023-05-09T22:15:32.626Z,35.67
2023-05-09T22:18:00.317Z,35.73
2023-05-09T22:20:27.756Z,35.67
2023-05-09T22:22:55.153Z,35.62
2023-05-09T22:25:22.817Z,35.63
2023-05-09T22:27:50.243Z,35.63
2023-05-09T22:30:17.985Z,35.63
2023-05-09T22:32:45.887Z,35.59
2023-05-09T22:35:13.290Z,35.75
2023-05-09T22:37:40.672Z,35.86
2023-05-09T22:40:09.432Z,35.92
2023-05-09T22:42:36.874Z,35.93
2023-05-09T22:45:04.639Z,35.95
2023-05-09T22:47:32.527Z,35.99
2023-05-09T22:49:59.912Z,35.98
2023-05-09T22:52:27.284Z,35.98
2023-05-09T22:54:54.961Z,35.98
2023-05-09T22:57:23.770Z,35.97
2023-05-09T22:59:51.250Z,35.97
2023-05-09T23:02:18.916Z,35.99
2023-05-09T23:04:46.449Z,35.99
2023-05-09T23:07:13.935Z,36.00
2023-05-09T23:09:41.650Z,36.00
2023-05-09T23:12:10.599Z,36.01
2023-05-09T23:14:38.146Z,36.00
2023-05-09T23:17:05.860Z,36.01
2023-05-09T23:19:33.262Z,35.99
2023-05-09T23:22:00.688Z,35.99
2023-05-09T23:24:28.370Z,35.97
2023-05-09T23:26:55.782Z,35.98
2023-05-09T23:29:23.302Z,35.99
2023-05-09T23:31:51.084Z,36.01
2023-05-09T23:34:18.603Z,36.04
2023-05-09T23:36:46.011Z,36.05
2023-05-09T23:39:13.644Z,36.04
2023-05-09T23:41:41.044Z,36.07
2023-05-09T23:44:08.477Z,36.06
2023-05-09T23:46:36.154Z,36.01
2023-05-09T23:49:04.464Z,36.05
2023-05-09T23:51:31.928Z,36.12
2023-05-09T23:53:59.606Z,36.11
2023-05-09T23:56:26.991Z,36.07
2023-05-09T23:58:54.413Z,36.10
